Aviation

Port-au-Prince

FTHA31 MTPP 301800
TAF MTPP 301748Z 3018/0118 11004KT 9999 FEW026
BECMG 3018/3022 27010KT
PROB30 TEMPO 0100/0104 09010KT 4500 SHRA SCT022CB SCT040
BECMG 0106/0110 VRB02KT 9000 FEW020
BECMG 0114/0118 09010KT=
NNNN


Cap-Haïtien

FTHA31 MTCH 301800
TAF MTCH 301751Z 3018/0118 02010KT 9999 FEW030TCU
PROB30 TEMPO 0100/0104 4500 SHRA SCT022CB SCT060
BECMG 0106/0110 VRB02KT 9000 FEW022
BECMG 0114/0118 03012KT=
NNNN